Time;durP1;ratioP1;P1;durP2;ratioP2;P2;SDS_P1;SDS_P2;PMS_P1;PMS_P2;Temp;Humidity;BMP_temperature;BMP_pressure;BME280_temperature;BME280_humidity;BME280_pressure;Samples;Min_cycle;Max_cycle;Signal;HPM_P1;HPM_P2
2024/02/01 00:01:50;;;;;;;;;;;;;;;5.75;70.44;101727.31;4196413;28;20016;-68
2024/02/01 00:03:53;;;;;;;;;;;;;;;5.74;70.63;101717.56;4197032;28;20019;-69
2024/02/01 00:05:55;;;;;;;;;;;;;;;5.72;70.80;101714.16;4195599;28;20020;-68
2024/02/01 00:07:58;;;;;;;;;;;;;;;5.72;70.72;101711.47;4195467;28;20015;-68
2024/02/01 00:10:00;;;;;;;;;;;;;;;5.72;70.68;101706.13;4196908;28;20489;-68
2024/02/01 00:12:03;;;;;;;;;;;;;;;5.74;70.76;101711.34;4195775;28;20051;-68
2024/02/01 00:14:05;;;;;;;;;;;;;;;5.73;70.44;101706.97;4196479;28;19978;-68
2024/02/01 00:16:07;;;;;;;;;;;;;;;5.71;70.67;101699.03;4195291;28;20430;-68
2024/02/01 00:18:08;;;;;;;;;;;;;;;5.70;70.95;101699.16;4178887;28;20015;-68
2024/02/01 00:20:10;;;;;;;;;;;;;;;5.70;70.70;101694.63;4196739;28;19924;-68
2024/02/01 00:22:11;;;;;;;;;;;;;;;5.70;70.77;101691.97;4196552;28;20015;-68
2024/02/01 00:24:15;;;;;;;;;;;;;;;5.69;70.48;101684.03;4196042;28;19970;-68
2024/02/01 00:26:17;;;;;;;;;;;;;;;5.69;70.49;101684.91;4193786;28;20018;-68
2024/02/01 00:28:18;;;;;;;;;;;;;;;5.66;70.40;101687.84;4195934;28;19979;-68
2024/02/01 00:30:21;;;;;;;;;;;;;;;5.67;70.44;101681.47;4195447;28;20372;-68
2024/02/01 00:32:22;;;;;;;;;;;;;;;5.66;70.49;101674.44;4196211;28;20099;-68
2024/02/01 00:34:23;;;;;;;;;;;;;;;5.63;70.69;101666.63;4196877;28;20398;-68
2024/02/01 00:36:26;;;;;;;;;;;;;;;5.64;70.84;101662.13;4194617;28;20024;-68
2024/02/01 00:38:28;;;;;;;;;;;;;;;5.64;70.42;101660.28;4196041;28;20383;-68
2024/02/01 00:40:31;;;;;;;;;;;;;;;5.65;70.81;101666.50;4194708;28;20023;-68
2024/02/01 00:42:33;;;;;;;;;;;;;;;5.60;70.66;101654.31;4194883;28;20363;-69
2024/02/01 00:44:35;;;;;;;;;;;;;;;5.62;70.40;101658.72;4195735;28;20368;-68
2024/02/01 00:46:37;;;;;;;;;;;;;;;5.63;70.63;101663.09;4196132;28;20015;-69
2024/02/01 00:48:39;;;;;;;;;;;;;;;5.61;70.61;101652.47;4195590;28;20370;-68
2024/02/01 00:50:40;;;;;;;;;;;;;;;5.62;70.40;101646.16;4195752;28;20023;-68
2024/02/01 00:52:42;;;;;;;;;;;;;;;5.60;70.76;101648.13;4196520;28;19928;-68
2024/02/01 00:54:44;;;;;;;;;;;;;;;5.61;70.49;101641.75;4196760;28;19924;-68
2024/02/01 00:56:47;;;;;;;;;;;;;;;5.60;70.52;101642.75;4171137;28;20009;-69
2024/02/01 00:58:49;;;;;;;;;;;;;;;5.58;70.59;101631.31;4196024;28;20011;-69
2024/02/01 01:00:51;;;;;;;;;;;;;;;5.56;70.54;101626.09;4193300;28;20019;-68
2024/02/01 01:02:53;;;;;;;;;;;;;;;5.56;70.51;101623.41;4195903;28;20019;-68
2024/02/01 01:04:55;;;;;;;;;;;;;;;5.55;70.60;101629.72;4196004;28;20373;-68
2024/02/01 01:06:56;;;;;;;;;;;;;;;5.55;70.49;101602.09;4195790;28;20445;-68
2024/02/01 01:08:58;;;;;;;;;;;;;;;5.57;70.39;101605.50;4195134;28;19924;-68
2024/02/01 01:11:00;;;;;;;;;;;;;;;5.56;70.52;101598.41;4195153;28;19999;-68
2024/02/01 01:13:04;;;;;;;;;;;;;;;5.54;70.38;101601.22;4193781;28;20024;-68
2024/02/01 01:15:05;;;;;;;;;;;;;;;5.56;70.26;101599.28;4195713;28;19934;-68
2024/02/01 01:17:08;;;;;;;;;;;;;;;5.58;70.30;101596.47;4193969;28;19960;-68
2024/02/01 01:19:09;;;;;;;;;;;;;;;5.57;70.24;101592.09;4194384;28;19925;-68
2024/02/01 01:21:11;;;;;;;;;;;;;;;5.57;70.13;101595.59;4195342;28;20019;-68
2024/02/01 01:23:13;;;;;;;;;;;;;;;5.55;70.17;101597.56;4195924;28;20019;-68
2024/02/01 01:25:15;;;;;;;;;;;;;;;5.54;70.30;101587.81;4196393;28;20011;-68
2024/02/01 01:27:17;;;;;;;;;;;;;;;5.54;70.31;101578.94;4193909;28;20007;-68
2024/02/01 01:29:20;;;;;;;;;;;;;;;5.54;70.29;101581.63;4192913;28;20027;-68
2024/02/01 01:31:22;;;;;;;;;;;;;;;5.54;70.36;101586.97;4195067;28;20018;-68
2024/02/01 01:33:24;;;;;;;;;;;;;;;5.56;70.64;101576.97;4195746;28;20015;-68
2024/02/01 01:35:26;;;;;;;;;;;;;;;5.60;70.31;101589.16;4194933;28;19924;-68
2024/02/01 01:37:28;;;;;;;;;;;;;;;5.60;70.31;101586.47;4194982;28;20007;-68
2024/02/01 01:39:30;;;;;;;;;;;;;;;5.60;70.00;101575.75;4195461;28;20035;-68
2024/02/01 01:41:32;;;;;;;;;;;;;;;5.60;70.20;101578.44;4194088;28;20023;-68
2024/02/01 01:43:34;;;;;;;;;;;;;;;5.59;70.29;101569.56;4193683;28;20011;-68
2024/02/01 01:45:36;;;;;;;;;;;;;;;5.59;70.30;101577.59;4194450;28;20031;-68
2024/02/01 01:47:38;;;;;;;;;;;;;;;5.58;70.21;101573.22;4195207;28;20023;-68
2024/02/01 01:49:40;;;;;;;;;;;;;;;5.56;70.40;101575.16;4195224;28;20020;-68
2024/02/01 01:51:42;;;;;;;;;;;;;;;5.58;70.47;101567.00;4194641;28;20023;-68
2024/02/01 01:53:44;;;;;;;;;;;;;;;5.56;70.23;101567.13;4194945;28;20395;-68
2024/02/01 01:55:45;;;;;;;;;;;;;;;5.58;70.16;101559.81;4191826;28;19932;-68
2024/02/01 01:57:48;;;;;;;;;;;;;;;5.57;70.18;101560.78;4195290;28;20015;-68
2024/02/01 01:59:48;;;;;;;;;;;;;;;5.57;70.57;101563.44;4194393;28;20019;-68
2024/02/01 02:01:52;;;;;;;;;;;;;;;5.57;70.25;101551.88;4194429;28;19931;-68
2024/02/01 02:03:54;;;;;;;;;;;;;;;5.56;70.51;101560.91;4195153;28;20094;-68
2024/02/01 02:05:57;;;;;;;;;;;;;;;5.58;70.33;101564.31;4193776;28;20023;-68
2024/02/01 02:07:58;;;;;;;;;;;;;;;5.57;70.49;101551.88;4193970;28;20433;-68
2024/02/01 02:10:00;;;;;;;;;;;;;;;5.58;70.34;101559.81;4194641;28;19975;-68
2024/02/01 02:12:02;;;;;;;;;;;;;;;5.56;70.42;101539.47;4193105;28;20012;-68
2024/02/01 02:14:08;;;;;;;;;;;;;;;5.56;70.58;101560.91;4195103;28;20018;-68
2024/02/01 02:16:10;;;;;;;;;;;;;;;5.56;70.63;101547.50;4192953;28;19999;-68
2024/02/01 02:18:14;;;;;;;;;;;;;;;5.56;70.58;101547.50;4195357;28;20019;-68
2024/02/01 02:20:17;;;;;;;;;;;;;;;5.58;70.59;101553.59;4195299;28;20047;-68
2024/02/01 02:22:20;;;;;;;;;;;;;;;5.59;70.64;101548.13;4194199;28;20023;-68
2024/02/01 02:24:22;;;;;;;;;;;;;;;5.60;70.51;101551.66;4193432;28;20027;-68
2024/02/01 02:26:23;;;;;;;;;;;;;;;5.60;70.54;101552.50;4177596;28;20015;-68
2024/02/01 02:28:25;;;;;;;;;;;;;;;5.59;70.57;101544.56;4195378;28;19998;-68
2024/02/01 02:30:27;;;;;;;;;;;;;;;5.59;70.46;101547.25;4194760;28;20007;-68
2024/02/01 02:32:29;;;;;;;;;;;;;;;5.58;70.54;101538.38;4193576;28;20020;-68
2024/02/01 02:34:31;;;;;;;;;;;;;;;5.58;70.55;101543.72;4192907;28;20028;-68
2024/02/01 02:36:33;;;;;;;;;;;;;;;5.58;71.08;101535.69;4194025;28;20023;-68
2024/02/01 02:38:36;;;;;;;;;;;;;;;5.58;71.23;101537.53;4194109;28;20015;-68
2024/02/01 02:40:38;;;;;;;;;;;;;;;5.56;71.50;101545.69;4194607;28;20023;-68
2024/02/01 02:42:40;;;;;;;;;;;;;;;5.56;71.75;101536.78;4193786;28;19975;-68
2024/02/01 02:44:42;;;;;;;;;;;;;;;5.55;72.18;101549.34;4192927;28;20011;-68
2024/02/01 02:46:45;;;;;;;;;;;;;;;5.55;72.73;101559.22;4194372;28;20462;-68
2024/02/01 02:48:47;;;;;;;;;;;;;;;5.54;73.12;101549.47;4169078;28;20025;-68
2024/02/01 02:50:48;;;;;;;;;;;;;;;5.52;73.66;101533.50;4194430;28;20031;-68
2024/02/01 02:52:50;;;;;;;;;;;;;;;5.52;74.17;101536.19;4176716;28;19935;-68
2024/02/01 02:54:54;;;;;;;;;;;;;;;5.53;74.50;101545.06;4194301;28;20022;-68
2024/02/01 02:56:55;;;;;;;;;;;;;;;5.50;74.99;101531.91;4193388;28;19932;-68
2024/02/01 02:58:57;;;;;;;;;;;;;;;5.48;75.18;101526.69;4194555;28;20007;-68
2024/02/01 03:00:59;;;;;;;;;;;;;;;5.48;75.15;101534.72;4192783;28;20349;-68
2024/02/01 03:03:01;;;;;;;;;;;;;;;5.49;75.77;101532.91;4191585;28;20022;-68
2024/02/01 03:05:03;;;;;;;;;;;;;;;5.48;75.78;101531.19;4193411;28;20466;-68
2024/02/01 03:07:08;;;;;;;;;;;;;;;5.48;75.85;101540.06;4192608;28;20047;-68
2024/02/01 03:09:16;;;;;;;;;;;;;;;5.49;76.25;101525.72;4193739;28;20059;-68
2024/02/01 03:11:19;;;;;;;;;;;;;;;5.46;76.41;101539.38;4191685;28;20026;-68
2024/02/01 03:13:21;;;;;;;;;;;;;;;5.46;76.70;101539.38;4176280;28;19956;-68
2024/02/01 03:15:23;;;;;;;;;;;;;;;5.47;76.84;101534.84;4197092;28;20023;-68
2024/02/01 03:17:25;;;;;;;;;;;;;;;5.44;77.45;101538.66;4179501;28;20477;-68
2024/02/01 03:19:28;;;;;;;;;;;;;;;5.45;77.66;101542.16;4195377;28;20621;-68
2024/02/01 03:21:30;;;;;;;;;;;;;;;5.43;77.96;101539.59;4179244;28;19960;-68
2024/02/01 03:23:32;;;;;;;;;;;;;;;5.41;78.21;101544.25;4197014;28;20003;-68
2024/02/01 03:25:36;;;;;;;;;;;;;;;5.41;78.61;101538.88;4196234;28;20473;-68
2024/02/01 03:27:42;;;;;;;;;;;;;;;5.40;78.50;101545.22;4195929;28;20015;-68
2024/02/01 03:29:44;;;;;;;;;;;;;;;5.40;78.92;101540.69;4193724;28;20366;-68
2024/02/01 03:31:46;;;;;;;;;;;;;;;5.38;79.30;101534.63;4194752;28;20370;-68
2024/02/01 03:33:47;;;;;;;;;;;;;;;5.37;79.42;101534.75;4196197;28;20370;-68
2024/02/01 03:35:51;;;;;;;;;;;;;;;5.38;79.73;101533.78;4195679;28;20032;-68
2024/02/01 03:37:53;;;;;;;;;;;;;;;5.36;79.78;101527.66;4195704;28;20027;-68
2024/02/01 03:39:55;;;;;;;;;;;;;;;5.36;79.75;101511.59;4196865;28;20064;-68
2024/02/01 03:41:57;;;;;;;;;;;;;;;5.34;80.32;101525.13;4194562;28;20027;-68
2024/02/01 03:44:01;;;;;;;;;;;;;;;5.32;80.45;101513.69;4179212;28;20023;-68
2024/02/01 03:46:03;;;;;;;;;;;;;;;5.33;80.70;101510.03;4195607;28;20010;-68
2024/02/01 03:48:05;;;;;;;;;;;;;;;5.31;81.24;101514.66;4196242;28;20063;-68
2024/02/01 03:50:08;;;;;;;;;;;;;;;5.30;81.40;101509.41;4197026;28;20007;-68
2024/02/01 03:52:11;;;;;;;;;;;;;;;5.30;81.17;101507.59;4196052;28;20031;-68
2024/02/01 03:54:13;;;;;;;;;;;;;;;5.27;81.78;101502.50;4196921;28;20466;-68
2024/02/01 03:56:15;;;;;;;;;;;;;;;5.28;81.85;101504.19;4194407;28;20441;-68
2024/02/01 03:58:16;;;;;;;;;;;;;;;5.25;82.26;101512.50;4196352;28;20022;-68
2024/02/01 04:00:28;;;;;;;;;;;;;;;5.23;82.33;101507.25;4195071;28;20020;-68
2024/02/01 04:02:30;;;;;;;;;;;;;;;5.27;82.60;101504.34;4194997;28;20027;-68
2024/02/01 04:04:32;;;;;;;;;;;;;;;5.24;82.59;101506.25;4196630;28;20019;-68
2024/02/01 04:06:35;;;;;;;;;;;;;;;5.23;82.78;101504.59;4195819;28;20015;-68
2024/02/01 04:08:38;;;;;;;;;;;;;;;5.22;83.20;101505.53;4195177;28;20011;-68
2024/02/01 04:10:40;;;;;;;;;;;;;;;5.23;83.41;101504.59;4195782;28;20011;-68
2024/02/01 04:12:42;;;;;;;;;;;;;;;5.24;83.41;101510.78;4194092;28;20023;-68
2024/02/01 04:14:44;;;;;;;;;;;;;;;5.22;83.64;101507.38;4195378;28;20011;-68
2024/02/01 04:16:48;;;;;;;;;;;;;;;5.23;83.61;101501.03;4194288;28;20015;-68
2024/02/01 04:18:51;;;;;;;;;;;;;;;5.21;83.77;101506.50;4197107;28;19978;-68
2024/02/01 04:20:53;;;;;;;;;;;;;;;5.21;84.04;101505.66;4195924;28;20011;-68
2024/02/01 04:22:54;;;;;;;;;;;;;;;5.20;84.15;101512.00;4195148;28;20007;-68
2024/02/01 04:24:56;;;;;;;;;;;;;;;5.20;84.39;101507.50;4195399;28;20387;-68
2024/02/01 04:26:58;;;;;;;;;;;;;;;5.18;84.65;101509.44;4196625;28;20342;-68
2024/02/01 04:29:00;;;;;;;;;;;;;;;5.17;84.78;101505.06;4196003;28;20015;-68
2024/02/01 04:31:02;;;;;;;;;;;;;;;5.17;85.14;101501.53;4176456;28;20027;-68
2024/02/01 04:33:07;;;;;;;;;;;;;;;5.18;84.95;101519.31;4195479;28;20055;-68
2024/02/01 04:35:09;;;;;;;;;;;;;;;5.13;85.39;101503.59;4195423;28;20023;-68
2024/02/01 04:37:12;;;;;;;;;;;;;;;5.18;85.09;101519.31;4195168;28;20035;-68
2024/02/01 04:39:14;;;;;;;;;;;;;;;5.18;85.33;101521.97;4195673;28;20858;-69
2024/02/01 04:41:16;;;;;;;;;;;;;;;5.20;85.59;101517.34;4194925;28;20022;-69
2024/02/01 04:43:19;;;;;;;;;;;;;;;5.19;85.98;101503.09;4194252;28;20028;-68
2024/02/01 04:45:20;;;;;;;;;;;;;;;5.20;85.87;101509.31;4194446;28;20024;-68
2024/02/01 04:47:22;;;;;;;;;;;;;;;5.21;86.12;101517.22;4194886;28;19925;-68
2024/02/01 04:49:25;;;;;;;;;;;;;;;5.21;86.22;101527.94;4195504;28;20019;-68
2024/02/01 04:51:30;;;;;;;;;;;;;;;5.21;86.46;101530.63;4177480;28;20035;-68
2024/02/01 04:53:32;;;;;;;;;;;;;;;5.22;86.39;101526.97;4196247;28;20070;-68
2024/02/01 04:55:34;;;;;;;;;;;;;;;5.21;86.76;101541.31;4194345;28;20015;-68
2024/02/01 04:57:36;;;;;;;;;;;;;;;5.20;87.32;101534.28;4193825;28;20019;-68
2024/02/01 04:59:40;;;;;;;;;;;;;;;5.20;87.33;101526.25;4195435;28;19928;-68
2024/02/01 05:01:43;;;;;;;;;;;;;;;5.22;87.43;101537.69;4168215;28;20228;-68
2024/02/01 05:03:45;;;;;;;;;;;;;;;5.23;87.72;101531.38;4192515;28;20007;-68
2024/02/01 05:05:48;;;;;;;;;;;;;;;5.25;87.82;101541.94;4195467;28;20050;-68
2024/02/01 05:07:50;;;;;;;;;;;;;;;5.24;88.17;101533.03;4194824;28;20015;-68
2024/02/01 05:09:53;;;;;;;;;;;;;;;5.23;88.59;101542.06;4193002;28;20032;-68
2024/02/01 05:11:54;;;;;;;;;;;;;;;5.26;88.52;101513.34;4192791;28;20024;-68
2024/02/01 05:13:56;;;;;;;;;;;;;;;5.24;88.74;101519.66;4194730;28;20341;-68
2024/02/01 05:15:58;;;;;;;;;;;;;;;5.24;89.20;101532.22;4194265;28;20007;-68
2024/02/01 05:18:00;;;;;;;;;;;;;;;5.24;89.18;101534.88;4177176;28;20027;-68
2024/02/01 05:20:08;;;;;;;;;;;;;;;5.23;89.33;101527.81;4194442;28;20123;-68
2024/02/01 05:22:12;;;;;;;;;;;;;;;5.24;89.54;101538.41;4195076;28;20023;-68
2024/02/01 05:24:13;;;;;;;;;;;;;;;5.22;89.44;101526.97;4176474;28;20099;-68
2024/02/01 05:26:15;;;;;;;;;;;;;;;5.23;89.46;101533.16;4194294;28;19932;-68
2024/02/01 05:28:18;;;;;;;;;;;;;;;5.23;89.64;101534.03;4195433;28;20011;-68
2024/02/01 05:30:19;;;;;;;;;;;;;;;5.22;89.72;101540.38;4193387;28;20319;-68
2024/02/01 05:32:21;;;;;;;;;;;;;;;5.23;89.81;101547.44;4194798;28;20032;-68
2024/02/01 05:34:23;;;;;;;;;;;;;;;5.24;89.62;101530.38;4194451;28;20027;-68
2024/02/01 05:36:25;;;;;;;;;;;;;;;5.26;89.99;101540.13;4194173;28;20011;-68
2024/02/01 05:38:29;;;;;;;;;;;;;;;5.27;89.95;101531.97;4191284;28;20019;-68
2024/02/01 05:40:31;;;;;;;;;;;;;;;5.28;90.13;101528.28;4193095;28;20007;-68
2024/02/01 05:42:34;;;;;;;;;;;;;;;5.27;90.62;101529.28;4192061;28;20620;-68
2024/02/01 05:44:35;;;;;;;;;;;;;;;5.30;90.28;101544.22;4192619;28;20003;-68
2024/02/01 05:46:41;;;;;;;;;;;;;;;5.31;90.44;101545.94;4194010;28;20024;-68
2024/02/01 05:48:43;;;;;;;;;;;;;;;5.32;90.67;101547.66;4195040;28;20518;-68
2024/02/01 05:50:45;;;;;;;;;;;;;;;5.31;90.31;101549.47;4193939;28;20023;-68
2024/02/01 05:52:47;;;;;;;;;;;;;;;5.34;90.47;101546.53;4193870;28;20023;-68
2024/02/01 05:54:50;;;;;;;;;;;;;;;5.35;90.54;101550.94;4189571;28;20011;-68
2024/02/01 05:56:52;;;;;;;;;;;;;;;5.37;90.53;101554.34;4192760;28;20030;-68
2024/02/01 05:58:54;;;;;;;;;;;;;;;5.38;90.24;101564.09;4193860;28;20030;-68
2024/02/01 06:00:57;;;;;;;;;;;;;;;5.39;90.64;101563.13;4193517;28;19924;-68
2024/02/01 06:02:59;;;;;;;;;;;;;;;5.41;90.56;101552.28;4192005;28;20016;-68
2024/02/01 06:05:00;;;;;;;;;;;;;;;5.41;90.58;101555.81;4194765;28;20474;-68
2024/02/01 06:07:02;;;;;;;;;;;;;;;5.44;90.89;101564.56;4193449;28;19929;-68
2024/02/01 06:09:05;;;;;;;;;;;;;;;5.44;90.92;101557.41;4194786;28;20040;-68
2024/02/01 06:11:08;;;;;;;;;;;;;;;5.46;90.93;101554.59;4193333;28;20036;-69
2024/02/01 06:13:11;;;;;;;;;;;;;;;5.46;91.30;101568.84;4190516;28;20484;-69
2024/02/01 06:15:13;;;;;;;;;;;;;;;5.47;91.03;101559.84;4190699;28;20028;-69
2024/02/01 06:17:14;;;;;;;;;;;;;;;5.48;90.64;101558.00;4191764;28;20028;-68
2024/02/01 06:19:17;;;;;;;;;;;;;;;5.45;90.61;101555.56;4195158;28;20032;-69
2024/02/01 06:21:19;;;;;;;;;;;;;;;5.49;90.58;101565.06;4193722;28;19924;-68
2024/02/01 06:23:21;;;;;;;;;;;;;;;5.50;90.92;101572.09;4175966;28;20607;-69
2024/02/01 06:25:23;;;;;;;;;;;;;;;5.52;90.56;101575.53;4176187;28;20031;-69
2024/02/01 06:27:27;;;;;;;;;;;;;;;5.53;90.93;101585.25;4190753;28;20023;-69
2024/02/01 06:29:29;;;;;;;;;;;;;;;5.55;90.84;101586.00;4192116;28;20015;-70
2024/02/01 06:31:31;;;;;;;;;;;;;;;5.55;90.95;101580.66;4191459;28;20008;-70
2024/02/01 06:33:32;;;;;;;;;;;;;;;5.55;91.02;101580.66;4191276;28;20019;-69
2024/02/01 06:35:34;;;;;;;;;;;;;;;5.56;91.03;101574.28;4188313;28;19948;-66
2024/02/01 06:37:40;;;;;;;;;;;;;;;5.59;91.05;101582.09;4185329;28;20019;-70
2024/02/01 06:40:10;;;;;;;;;;;;;;;5.59;91.34;101587.44;4169043;28;20051;-69
2024/02/01 06:42:17;;;;;;;;;;;;;;;5.62;91.40;101591.72;4189226;28;19932;-66
2024/02/01 06:44:24;;;;;;;;;;;;;;;5.64;92.00;101592.44;4190623;28;19960;-67
2024/02/01 06:46:48;;;;;;;;;;;;;;;5.65;91.88;101596.84;4172521;28;20008;-66
2024/02/01 06:49:01;;;;;;;;;;;;;;;5.65;91.67;101595.00;4178123;28;20067;-66
2024/02/01 06:51:10;;;;;;;;;;;;;;;5.67;91.80;101597.56;4194259;28;20020;-66
2024/02/01 06:53:19;;;;;;;;;;;;;;;5.67;91.90;101601.06;4194476;28;20016;-67
2024/02/01 06:55:43;;;;;;;;;;;;;;;5.69;92.04;101609.00;4193474;28;20015;-66
2024/02/01 06:57:45;;;;;;;;;;;;;;;5.71;91.93;101609.75;4194398;28;20011;-69
2024/02/01 07:00:16;;;;;;;;;;;;;;;5.71;91.90;101613.25;4193327;28;20048;-68
2024/02/01 07:02:34;;;;;;;;;;;;;;;5.74;91.83;101617.53;4192174;28;20469;-65
2024/02/01 07:04:50;;;;;;;;;;;;;;;5.74;91.65;101629.09;4193719;28;20446;-67
2024/02/01 07:07:05;;;;;;;;;;;;;;;5.77;91.65;101636.06;4178475;28;20015;-67
2024/02/01 07:09:28;;;;;;;;;;;;;;;5.78;91.70;101641.28;4193547;28;20039;-66
2024/02/01 07:11:30;;;;;;;;;;;;;;;5.80;91.42;101646.53;4176169;28;20020;-66
2024/02/01 07:13:47;;;;;;;;;;;;;;;5.80;90.93;101637.63;4178610;28;20069;-66
2024/02/01 07:15:52;;;;;;;;;;;;;;;5.81;90.49;101644.69;4196565;28;20019;-65
2024/02/01 07:17:59;;;;;;;;;;;;;;;5.82;90.63;101643.72;4196359;28;20028;-66
2024/02/01 07:20:05;;;;;;;;;;;;;;;5.84;90.13;101657.84;4196189;28;20018;-66
2024/02/01 07:22:09;;;;;;;;;;;;;;;5.85;90.20;101672.97;4196321;28;20016;-65
2024/02/01 07:24:17;;;;;;;;;;;;;;;5.87;89.93;101671.00;4196388;28;19924;-65
2024/02/01 07:26:35;;;;;;;;;;;;;;;5.87;89.87;101661.13;4196014;28;20027;-66
2024/02/01 07:59:02;;;;;;;;;;;;;;;6.05;87.40;101692.81;4194669;28;19958;-65
2024/02/01 08:01:14;;;;;;;;;;;;;;;6.08;86.91;101697.94;4194635;28;20050;-66
2024/02/01 08:03:22;;;;;;;;;;;;;;;6.07;86.96;101699.78;4196772;28;20371;-67
2024/02/01 08:07:48;;;;;;;;;;;;;;;6.10;86.26;101720.16;4196149;28;20020;-66
2024/02/01 08:09:52;;;;;;;;;;;;;;;6.12;85.99;101718.19;4196387;28;20015;-66
2024/02/01 08:11:54;;;;;;;;;;;;;;;6.15;85.90;101722.47;4194818;28;20044;-67
2024/02/01 08:13:56;;;;;;;;;;;;;;;6.15;85.61;101731.34;4178278;28;20599;-65
2024/02/01 08:15:58;;;;;;;;;;;;;;;6.16;85.31;101735.75;4194754;28;20035;-66
2024/02/01 08:18:03;;;;;;;;;;;;;;;6.19;84.76;101740.88;4196032;28;20457;-66
2024/02/01 08:20:12;;;;;;;;;;;;;;;6.20;84.66;101737.19;4177555;28;20526;-66
2024/02/01 08:22:14;;;;;;;;;;;;;;;6.24;84.35;101735.13;4196354;28;20600;-66
2024/02/01 08:24:16;;;;;;;;;;;;;;;6.26;84.26;101741.22;4195883;28;20018;-65
2024/02/01 08:26:17;;;;;;;;;;;;;;;6.29;84.12;101751.69;4195210;28;19924;-65
2024/02/01 08:28:20;;;;;;;;;;;;;;;6.32;84.35;101763.03;4195942;28;20346;-65
2024/02/01 08:30:21;;;;;;;;;;;;;;;6.36;84.28;101776.19;4196144;28;20450;-65
2024/02/01 08:32:23;;;;;;;;;;;;;;;6.38;84.43;101771.53;4195906;28;20370;-66
2024/02/01 08:34:26;;;;;;;;;;;;;;;6.41;84.37;101777.53;4195338;28;20027;-65
2024/02/01 08:36:29;;;;;;;;;;;;;;;6.44;84.49;101771.94;4195251;28;20031;-65
2024/02/01 08:38:32;;;;;;;;;;;;;;;6.47;84.32;101778.84;4195301;28;20015;-66
2024/02/01 08:40:39;;;;;;;;;;;;;;;6.51;84.46;101783.00;4195654;28;20335;-66
2024/02/01 08:42:42;;;;;;;;;;;;;;;6.53;84.16;101780.19;4194968;28;20018;-66
2024/02/01 08:44:44;;;;;;;;;;;;;;;6.56;84.44;101780.78;4195750;28;20042;-66
2024/02/01 08:46:46;;;;;;;;;;;;;;;6.58;84.05;101783.34;4196452;28;19925;-67
2024/02/01 08:48:48;;;;;;;;;;;;;;;6.63;84.18;101786.50;4195846;28;20023;-67
2024/02/01 08:50:52;;;;;;;;;;;;;;;6.66;84.19;101786.25;4194844;28;20016;-67
2024/02/01 08:52:55;;;;;;;;;;;;;;;6.69;84.00;101796.75;4195386;28;20019;-67
2024/02/01 08:54:57;;;;;;;;;;;;;;;6.73;83.75;101790.16;4195006;28;20366;-66
2024/02/01 08:56:59;;;;;;;;;;;;;;;6.78;83.72;101797.81;4196030;28;20309;-65
2024/02/01 08:59:01;;;;;;;;;;;;;;;6.81;83.61;101797.56;4194311;28;20024;-66
2024/02/01 09:01:02;;;;;;;;;;;;;;;6.86;83.18;101792.66;4195475;28;20449;-66
2024/02/01 09:03:05;;;;;;;;;;;;;;;6.90;83.33;101795.97;4195569;28;20011;-67
2024/02/01 09:05:19;;;;;;;;;;;;;;;6.95;83.09;101804.50;4195907;28;20453;-67
2024/02/01 09:07:21;;;;;;;;;;;;;;;6.98;83.22;101802.41;4177579;28;20501;-66
2024/02/01 09:09:30;;;;;;;;;;;;;;;7.04;82.91;101809.09;4195221;28;20032;-67
2024/02/01 09:11:32;;;;;;;;;;;;;;;7.09;82.60;101796.13;4193642;28;20044;-65
2024/02/01 09:13:33;;;;;;;;;;;;;;;7.15;82.72;101802.84;4193422;28;20044;-67
2024/02/01 09:15:35;;;;;;;;;;;;;;;7.17;82.35;101790.13;4195727;28;20027;-65
2024/02/01 09:17:36;;;;;;;;;;;;;;;7.23;82.32;101794.97;4195123;28;20028;-66
2024/02/01 09:19:38;;;;;;;;;;;;;;;7.29;81.79;101790.91;4194397;28;19924;-67
2024/02/01 09:21:40;;;;;;;;;;;;;;;7.33;81.82;101795.06;4193608;28;20015;-68
2024/02/01 09:23:44;;;;;;;;;;;;;;;7.36;81.59;101787.56;4195460;28;20817;-67
2024/02/01 09:25:46;;;;;;;;;;;;;;;7.43;81.53;101798.69;4195318;28;20450;-68
2024/02/01 09:27:49;;;;;;;;;;;;;;;7.46;81.62;101790.34;4194643;28;20366;-66
2024/02/01 09:29:51;;;;;;;;;;;;;;;7.50;81.24;101790.94;4195622;28;20011;-65
2024/02/01 09:31:56;;;;;;;;;;;;;;;7.55;80.98;101794.94;4195151;28;20082;-66
2024/02/01 09:33:58;;;;;;;;;;;;;;;7.60;81.01;101813.34;4195627;28;20361;-66
2024/02/01 09:36:00;;;;;;;;;;;;;;;7.63;80.84;101801.47;4176824;28;20015;-65
2024/02/01 09:38:02;;;;;;;;;;;;;;;7.66;80.46;101807.44;4193688;28;20442;-65
2024/02/01 09:40:09;;;;;;;;;;;;;;;7.69;80.19;101801.78;4192583;28;20011;-66
2024/02/01 09:42:13;;;;;;;;;;;;;;;7.73;79.84;101808.63;4194421;28;20019;-65
2024/02/01 09:44:15;;;;;;;;;;;;;;;7.76;79.85;101802.97;4193047;28;20011;-67
2024/02/01 09:46:16;;;;;;;;;;;;;;;7.79;79.71;101806.38;4194855;28;20023;-67
2024/02/01 09:48:18;;;;;;;;;;;;;;;7.81;79.58;101802.59;4194979;28;20000;-65
2024/02/01 09:50:20;;;;;;;;;;;;;;;7.84;79.39;101801.47;4195230;28;20019;-65
2024/02/01 09:52:23;;;;;;;;;;;;;;;7.87;78.99;101793.16;4193941;28;20368;-66
2024/02/01 09:54:25;;;;;;;;;;;;;;;7.89;78.89;101792.00;4194676;28;20023;-67
2024/02/01 09:56:27;;;;;;;;;;;;;;;7.94;78.91;101805.06;4194921;28;20019;-65
2024/02/01 09:58:32;;;;;;;;;;;;;;;7.96;78.54;101805.75;4176970;28;20584;-64
2024/02/01 10:00:34;;;;;;;;;;;;;;;7.99;78.19;101797.44;4193709;28;20030;-65
2024/02/01 10:02:35;;;;;;;;;;;;;;;8.01;78.17;101790.09;4194166;28;20754;-65
2024/02/01 10:04:37;;;;;;;;;;;;;;;8.04;78.04;101805.97;4195053;28;19939;-65
2024/02/01 10:06:39;;;;;;;;;;;;;;;8.07;77.33;101803.00;4193650;28;20043;-66
2024/02/01 10:08:42;;;;;;;;;;;;;;;8.09;77.32;101803.72;4194524;28;19924;-69
2024/02/01 10:10:45;;;;;;;;;;;;;;;8.10;77.22;101800.06;4192178;28;20016;-67
2024/02/01 10:12:47;;;;;;;;;;;;;;;8.13;76.72;101812.38;4194047;28;20019;-66
2024/02/01 10:14:50;;;;;;;;;;;;;;;8.15;76.51;101807.72;4194899;28;20035;-63
2024/02/01 10:16:52;;;;;;;;;;;;;;;8.17;76.39;101799.53;4193525;28;20035;-65
2024/02/01 10:18:54;;;;;;;;;;;;;;;8.19;76.19;101806.44;4194376;28;20024;-65
2024/02/01 10:20:58;;;;;;;;;;;;;;;8.23;76.08;101810.59;4194550;28;20044;-65
2024/02/01 10:22:59;;;;;;;;;;;;;;;8.26;76.21;101806.75;4194087;28;20015;-65
2024/02/01 10:25:03;;;;;;;;;;;;;;;8.28;75.62;101808.31;4194172;28;20024;-66
2024/02/01 10:27:07;;;;;;;;;;;;;;;8.31;75.56;101815.28;4194350;28;20024;-66
2024/02/01 10:29:09;;;;;;;;;;;;;;;8.34;75.29;101809.63;4194960;28;20023;-65
2024/02/01 10:31:13;;;;;;;;;;;;;;;8.37;75.12;101809.38;4193679;28;20015;-66
2024/02/01 10:33:15;;;;;;;;;;;;;;;8.39;74.72;101807.38;4194943;28;20353;-66
2024/02/01 10:35:16;;;;;;;;;;;;;;;8.42;74.65;101812.50;4195082;28;20026;-65
2024/02/01 10:37:19;;;;;;;;;;;;;;;8.44;74.47;101804.31;4194710;28;20023;-65
2024/02/01 10:39:22;;;;;;;;;;;;;;;8.46;74.07;101802.31;4193542;28;20018;-65
2024/02/01 10:41:27;;;;;;;;;;;;;;;8.48;73.81;101806.59;4193253;28;20019;-65
2024/02/01 10:43:29;;;;;;;;;;;;;;;8.52;73.91;101809.84;4192982;28;20390;-68
2024/02/01 10:45:30;;;;;;;;;;;;;;;8.55;73.67;101806.03;4194493;28;20027;-68
2024/02/01 10:47:34;;;;;;;;;;;;;;;8.57;73.13;101804.91;4194010;28;20027;-65
2024/02/01 10:49:37;;;;;;;;;;;;;;;8.60;72.79;101817.25;4194430;28;19939;-63
2024/02/01 10:51:39;;;;;;;;;;;;;;;8.63;72.27;101800.81;4193562;28;20015;-66
2024/02/01 10:53:43;;;;;;;;;;;;;;;8.65;72.14;101797.00;4193759;28;20024;-66
2024/02/01 10:55:48;;;;;;;;;;;;;;;8.69;71.98;101808.34;4193238;28;20656;-65
2024/02/01 10:57:49;;;;;;;;;;;;;;;8.72;71.68;101808.06;4193463;28;20425;-65
2024/02/01 10:59:51;;;;;;;;;;;;;;;8.75;71.84;101797.00;4194833;28;19924;-65
2024/02/01 11:01:53;;;;;;;;;;;;;;;8.79;71.96;101805.66;4194248;28;20008;-67
2024/02/01 11:03:58;;;;;;;;;;;;;;;8.81;71.39;101799.16;4176414;28;20019;-65
2024/02/01 11:06:00;;;;;;;;;;;;;;;8.85;71.37;101815.88;4194339;28;20024;-65
2024/02/01 11:08:03;;;;;;;;;;;;;;;8.89;71.26;101821.88;4193440;28;20042;-66
2024/02/01 11:10:12;;;;;;;;;;;;;;;8.92;71.11;101816.16;4193099;28;20408;-68
2024/02/01 11:12:15;;;;;;;;;;;;;;;8.95;70.91;101810.50;4193386;28;20019;-65
2024/02/01 11:14:18;;;;;;;;;;;;;;;8.97;70.64;101819.31;4194024;28;20023;-65
2024/02/01 11:16:20;;;;;;;;;;;;;;;9.00;70.17;101822.56;4194557;28;20078;-64